Pahoa, HI (96778)

1:55 PM HST on December 21, 2014 (GMT -1000)
Hawaiian Shores Rec. | Change Station
CLOSE
Current Station
Personal Weather Station
Location: Pahoa, HI
Elevation: 217 ft
Nearby Weather Stations
Active Advisory: High Surf Advisory Active Notice: Record Report

Elev 217 ft 19.54 °N, 154.90 °W | Updated 8 seconds ago

Clear
Clear
79.9 °F
Feels Like 84 °F
N
10.0
Wind Variable Wind from NE
Gusts 30.0 mph

Today
High -- | Low -- °F
--% Chance of Precip.
Yesterday
High -- | Low -- °F
Precip. -- in
6:49 AM 5:46 PM
Waning Crescent, 0% visible
Pressure 29.97 in
Visibility 10.0 miles
Clouds Clear
Heat Index 84 °F
Dew Point 72 °F
Humidity 78%
Rainfall 2.64 in
Snow Depth Not available.
UV 5 out of 12
Pollen Not available.
Air Quality Not available.
Flu Activity Not available.
METAR PHTO 212353Z 09007KT 10SM CLR 28/18 A2997 RMK AO2 SLP148 60000 T02780183 10283 20200 56025 $

More Conditions Fewer Conditions

Pressure 29.97 in
Visibility 10.0 miles
Clouds Clear
Heat Index 84 °F
Dew Point 72 °F
Humidity 78%
Rainfall 2.64 in
Snow Depth Not available.
UV 5 out of 12
Pollen Not available.
Air Quality Not available.
Flu Activity Not available.
METAR PHTO 212353Z 09007KT 10SM CLR 28/18 A2997 RMK AO2 SLP148 60000 T02780183 10283 20200 56025 $

More Conditions Fewer Conditions

10-Day Weather Forecast

Almanac

Astronomy

Dec. 21, 2014 Rise Set
Actual Time
Civil Twilight
Nautical Twilight
Astronomical Twilight
Moon
Length of Visible Light
Length of Day
Tomorrow will be .
, % of the Moon is Illuminated

Today's Extremes

State Highs State Lows

Community

WunderPhotos

Upload Photos

1,779,505 photos uploaded!

WunderBlogs® & News

Nearby

Air Quality

  Air Quality AQ Index Pollutant
Not available.

Snow Depth

Station Depth Elevation

Earthquake Activity

City Distance Mag. Time & Date
Minimum magnitude displayed is 2.5.

Coastal Water Temperatures

Place Temperature

Nearby Weather Stations